Time;durP1;ratioP1;P1;durP2;ratioP2;P2;SDS_P1;SDS_P2;PMS_P1;PMS_P2;Temp;Humidity;BMP_temperature;BMP_pressure;BME280_temperature;BME280_humidity;BME280_pressure;Samples;Min_cycle;Max_cycle;Signal;HPM_P1;HPM_P2
2022/08/30 00:03:20;;;;;;;6.07;2.70;;;18.50;70.30;;;;;;10478659;28;20309;-73
2022/08/30 00:08:21;;;;;;;4.43;2.63;;;18.40;70.60;;;;;;10477516;28;20271;-69
2022/08/30 00:13:23;;;;;;;6.87;2.80;;;18.30;70.90;;;;;;10477794;28;20219;-71
2022/08/30 00:18:27;;;;;;;5.67;2.93;;;18.30;71.30;;;;;;10472107;28;20227;-71
2022/08/30 00:23:28;;;;;;;4.77;2.83;;;18.30;71.70;;;;;;10478666;28;20697;-69
2022/08/30 00:28:29;;;;;;;8.97;2.90;;;18.20;71.90;;;;;;10475872;28;20300;-70
2022/08/30 00:33:30;;;;;;;5.33;2.57;;;18.20;72.10;;;;;;10479204;28;20226;-70
2022/08/30 00:38:30;;;;;;;7.77;2.47;;;18.10;72.10;;;;;;10472613;28;20236;-71
2022/08/30 00:43:33;;;;;;;6.23;2.60;;;18.10;72.10;;;;;;10481520;28;20580;-70
2022/08/30 00:48:39;;;;;;;7.37;2.67;;;18.10;72.30;;;;;;10473478;28;20231;-71
2022/08/30 00:53:43;;;;;;;2.93;2.13;;;18.10;72.40;;;;;;10479787;28;20289;-70
2022/08/30 00:58:49;;;;;;;3.33;2.27;;;18.10;72.60;;;;;;10472873;28;20442;-71
2022/08/30 01:03:49;;;;;;;6.10;2.47;;;18.10;73.10;;;;;;10464740;28;20634;-71
2022/08/30 01:08:51;;;;;;;6.03;2.53;;;17.90;73.10;;;;;;10476689;28;20267;-72
2022/08/30 01:13:53;;;;;;;5.93;2.57;;;17.80;73.70;;;;;;10471569;28;20330;-70
2022/08/30 01:18:57;;;;;;;8.97;2.70;;;17.80;74.30;;;;;;10479028;28;20234;-70
2022/08/30 01:23:59;;;;;;;5.47;2.67;;;17.70;74.50;;;;;;10488291;28;20246;-71
2022/08/30 01:29:09;;;;;;;4.67;2.67;;;17.70;74.70;;;;;;10475825;28;20242;-69
2022/08/30 01:34:13;;;;;;;4.37;2.60;;;17.70;74.90;;;;;;10468465;28;20222;-68
2022/08/30 01:39:16;;;;;;;3.73;2.37;;;17.70;75.20;;;;;;10481395;28;20226;-69
2022/08/30 01:44:17;;;;;;;4.73;2.20;;;17.60;75.70;;;;;;10475333;28;20214;-70
2022/08/30 01:49:18;;;;;;;5.40;2.50;;;17.50;76.20;;;;;;10469385;28;20713;-69
2022/08/30 01:54:19;;;;;;;4.50;2.50;;;17.40;76.40;;;;;;10475077;28;20268;-69
2022/08/30 01:59:20;;;;;;;4.83;2.70;;;17.40;76.90;;;;;;10472163;28;20782;-69
2022/08/30 02:04:20;;;;;;;5.83;2.77;;;17.40;77.20;;;;;;10474318;28;20557;-70
2022/08/30 02:09:21;;;;;;;5.70;2.77;;;17.40;78.20;;;;;;10468248;28;20222;-73
2022/08/30 02:14:22;;;;;;;5.33;2.77;;;17.30;77.60;;;;;;10472869;28;20364;-70
2022/08/30 02:19:23;;;;;;;6.87;2.70;;;17.30;77.90;;;;;;10469304;28;20310;-70
2022/08/30 02:24:24;;;;;;;6.07;3.10;;;17.10;78.60;;;;;;10473665;28;20218;-70
2022/08/30 02:29:26;;;;;;;4.57;2.37;;;17.10;78.90;;;;;;10469437;28;20726;-72
2022/08/30 02:34:26;;;;;;;6.77;2.70;;;17.10;79.10;;;;;;10473685;28;20705;-69
2022/08/30 02:39:33;;;;;;;7.03;2.83;;;17.10;79.20;;;;;;10473082;28;20249;-69
2022/08/30 02:44:36;;;;;;;5.00;3.00;;;17.10;79.80;;;;;;10468824;28;20220;-70
2022/08/30 02:49:37;;;;;;;6.37;2.77;;;17.00;80.50;;;;;;10475226;28;20219;-69
2022/08/30 02:54:37;;;;;;;8.53;3.37;;;16.90;81.20;;;;;;10469808;28;20222;-69
2022/08/30 02:59:42;;;;;;;5.43;3.00;;;16.90;81.90;;;;;;10478293;28;20317;-69
2022/08/30 03:04:43;;;;;;;10.37;3.50;;;16.80;82.50;;;;;;10466048;28;20706;-69
2022/08/30 03:09:47;;;;;;;6.10;2.80;;;16.70;83.90;;;;;;10474588;28;20218;-69
2022/08/30 03:14:48;;;;;;;5.43;2.80;;;16.60;84.00;;;;;;10483507;28;20249;-71
2022/08/30 03:19:49;;;;;;;5.47;2.73;;;16.50;84.60;;;;;;10475849;28;20722;-71
2022/08/30 03:24:52;;;;;;;9.47;3.37;;;16.60;84.80;;;;;;10467813;28;20215;-71
2022/08/30 03:29:53;;;;;;;7.90;3.83;;;16.50;84.90;;;;;;10483409;28;20223;-69
2022/08/30 03:34:54;;;;;;;11.10;3.07;;;16.50;85.30;;;;;;10474995;28;20225;-70
2022/08/30 03:39:55;;;;;;;5.17;3.20;;;16.50;85.70;;;;;;10467912;28;20228;-69
2022/08/30 03:44:55;;;;;;;11.13;3.37;;;16.50;85.90;;;;;;10470033;28;20722;-70
2022/08/30 03:49:56;;;;;;;6.80;3.27;;;16.30;86.40;;;;;;10467510;28;20219;-71
2022/08/30 03:54:59;;;;;;;5.23;3.10;;;16.30;86.90;;;;;;10467957;28;20334;-72
2022/08/30 04:00:00;;;;;;;8.23;2.90;;;16.20;87.40;;;;;;10480788;28;20312;-68
2022/08/30 04:05:01;;;;;;;7.97;3.00;;;16.10;87.80;;;;;;10476200;28;20241;-69
2022/08/30 04:10:04;;;;;;;9.97;2.90;;;16.10;88.30;;;;;;10472799;28;20210;-72
2022/08/30 04:15:06;;;;;;;7.20;3.20;;;16.00;88.70;;;;;;10476337;28;20233;-71
2022/08/30 04:20:07;;;;;;;4.40;2.80;;;15.90;89.30;;;;;;10480077;28;20207;-73
2022/08/30 04:25:08;;;;;;;6.47;3.23;;;15.90;89.60;;;;;;10473963;28;20689;-71
2022/08/30 04:30:14;;;;;;;7.50;2.73;;;15.80;90.00;;;;;;10477053;28;20195;-72
2022/08/30 04:35:15;;;;;;;9.63;3.40;;;15.60;90.30;;;;;;10477455;28;20610;-73
2022/08/30 04:40:16;;;;;;;4.83;3.20;;;15.60;90.60;;;;;;10476015;28;20269;-71
2022/08/30 04:45:16;;;;;;;5.40;2.73;;;15.60;90.80;;;;;;10473131;28;20205;-70
2022/08/30 04:50:18;;;;;;;7.13;3.60;;;15.60;91.10;;;;;;10477435;28;20686;-70
2022/08/30 04:55:20;;;;;;;7.87;3.30;;;15.70;91.10;;;;;;10476079;28;20687;-72
2022/08/30 05:00:21;;;;;;;7.23;3.07;;;15.80;91.00;;;;;;10473383;28;20301;-71
2022/08/30 05:05:40;;;;;;;6.53;3.40;;;15.80;90.80;;;;;;10476361;28;20187;-68
2022/08/30 05:10:44;;;;;;;6.07;2.80;;;15.90;90.70;;;;;;10478923;28;20219;-71
2022/08/30 05:15:44;;;;;;;10.57;3.13;;;16.00;90.80;;;;;;10472014;28;20220;-72
2022/08/30 05:20:45;;;;;;;6.13;3.00;;;16.00;90.70;;;;;;10479091;28;20651;-68
2022/08/30 05:25:45;;;;;;;8.23;2.83;;;16.10;90.70;;;;;;10471397;28;20721;-69
2022/08/30 05:30:46;;;;;;;5.87;3.57;;;16.20;90.60;;;;;;10493385;28;20227;-69
2022/08/30 05:35:47;;;;;;;7.40;3.10;;;16.30;90.40;;;;;;10470920;28;20243;-69
2022/08/30 05:40:48;;;;;;;7.80;3.60;;;16.40;90.20;;;;;;10475221;28;20226;-69
2022/08/30 05:46:00;;;;;;;11.03;3.33;;;16.50;90.00;;;;;;10461724;28;20280;-68
2022/08/30 05:51:08;;;;;;;7.17;3.57;;;16.70;89.50;;;;;;10475970;28;20222;-68
2022/08/30 05:56:11;;;;;;;7.47;3.13;;;17.10;88.20;;;;;;10465358;28;20238;-68
2022/08/30 06:01:21;;;;;;;6.27;3.30;;;18.00;84.90;;;;;;10474829;28;20223;-68
2022/08/30 06:06:22;;;;;;;9.63;3.10;;;20.80;73.40;;;;;;10473064;28;20774;-68
2022/08/30 06:11:24;;;;;;;11.70;3.10;;;22.30;66.00;;;;;;10472579;28;20310;-68
2022/08/30 06:16:27;;;;;;;6.97;3.30;;;23.70;60.50;;;;;;10469376;28;20228;-68
2022/08/30 06:21:31;;;;;;;10.80;3.30;;;24.40;57.80;;;;;;10473874;28;20211;-68
2022/08/30 06:26:36;;;;;;;10.27;3.67;;;23.70;58.60;;;;;;10469954;28;20221;-69
2022/08/30 06:31:37;;;;;;;5.87;2.90;;;23.10;59.50;;;;;;10475542;28;20249;-68
2022/08/30 06:36:39;;;;;;;8.70;3.33;;;21.80;63.80;;;;;;10470536;28;20656;-68
2022/08/30 06:41:43;;;;;;;9.90;3.13;;;20.90;68.10;;;;;;10475355;28;20729;-67
2022/08/30 06:46:44;;;;;;;7.13;3.07;;;20.30;70.90;;;;;;10468077;28;20281;-68
2022/08/30 06:51:44;;;;;;;9.20;3.20;;;20.10;72.10;;;;;;10476391;28;20280;-68
2022/08/30 06:56:48;;;;;;;8.07;3.00;;;20.20;72.60;;;;;;10468765;28;20318;-67
2022/08/30 07:01:48;;;;;;;10.87;3.10;;;20.50;72.00;;;;;;10459835;28;20301;-68
2022/08/30 07:06:49;;;;;;;8.97;3.20;;;20.70;71.50;;;;;;10468047;28;20265;-68
2022/08/30 07:11:50;;;;;;;12.20;3.43;;;21.00;71.60;;;;;;10476619;28;20246;-67
2022/08/30 07:16:51;;;;;;;9.53;2.90;;;21.10;70.10;;;;;;10468013;28;20243;-68
2022/08/30 07:21:52;;;;;;;12.40;3.13;;;21.20;70.20;;;;;;10474658;28;20219;-67
2022/08/30 07:26:53;;;;;;;11.57;3.97;;;21.50;69.50;;;;;;10467228;28;20265;-67
2022/08/30 07:31:53;;;;;;;9.53;3.33;;;21.90;68.60;;;;;;10477638;28;20831;-67
2022/08/30 07:36:54;;;;;;;11.57;3.40;;;22.30;67.00;;;;;;10476227;28;20358;-66
2022/08/30 07:41:54;;;;;;;6.77;3.30;;;24.60;60.40;;;;;;10481487;28;20220;-68
2022/08/30 07:46:56;;;;;;;9.00;3.10;;;26.60;55.70;;;;;;10475913;28;20243;-68
2022/08/30 07:51:57;;;;;;;11.37;2.80;;;28.90;50.90;;;;;;10475435;28;20251;-67
2022/08/30 07:57:00;;;;;;;9.47;3.53;;;29.30;49.30;;;;;;10481323;28;20227;-65
2022/08/30 08:02:01;;;;;;;5.13;3.10;;;29.80;47.90;;;;;;10474698;28;20239;-68
2022/08/30 08:07:02;;;;;;;9.13;3.70;;;30.60;46.50;;;;;;10480641;28;20330;-67
2022/08/30 08:12:05;;;;;;;6.90;3.33;;;30.80;45.60;;;;;;10475700;28;20242;-67
2022/08/30 08:17:06;;;;;;;8.80;3.87;;;31.20;44.80;;;;;;10474972;28;20247;-67
2022/08/30 08:22:07;;;;;;;6.87;3.30;;;31.30;44.40;;;;;;10477260;28;20212;-68
2022/08/30 08:27:07;;;;;;;8.57;3.90;;;32.00;43.30;;;;;;10472820;28;20212;-67
2022/08/30 08:32:08;;;;;;;6.77;3.57;;;32.20;43.00;;;;;;10478452;28;20573;-67
2022/08/30 08:37:09;;;;;;;5.93;3.20;;;32.40;42.20;;;;;;10476042;28;20223;-67
2022/08/30 08:42:31;;;;;;;8.70;3.30;;;32.40;42.30;;;;;;10477653;28;20218;-67
2022/08/30 08:47:46;;;;;;;7.37;3.37;;;32.40;42.30;;;;;;10477590;28;20227;-70
2022/08/30 08:58:23;;;;;;;7.97;3.67;;;32.00;42.10;;;;;;10470824;28;20587;-69
2022/08/30 09:03:27;;;;;;;6.50;3.43;;;31.20;43.60;;;;;;10475670;28;20238;-68
2022/08/30 09:08:27;;;;;;;8.43;3.87;;;31.00;43.60;;;;;;10475240;28;20270;-68
2022/08/30 09:13:28;;;;;;;7.30;3.50;;;32.10;42.30;;;;;;10476495;28;20221;-68
2022/08/30 09:18:55;;;;;;;6.33;3.20;;;32.90;40.40;;;;;;10474646;28;20223;-68
2022/08/30 09:24:00;;;;;;;8.40;2.87;;;34.80;37.70;;;;;;10464555;28;20215;-67
2022/08/30 09:29:01;;;;;;;7.27;3.47;;;34.80;37.10;;;;;;10472321;28;20224;-67
2022/08/30 09:34:05;;;;;;;7.30;3.50;;;34.30;37.60;;;;;;10476944;28;20628;-67
2022/08/30 09:39:17;;;;;;;6.00;3.17;;;34.10;37.70;;;;;;10472912;28;20231;-68
2022/08/30 09:44:22;;;;;;;6.77;3.17;;;33.80;38.30;;;;;;10473172;28;20636;-68
2022/08/30 09:49:40;;;;;;;6.60;3.40;;;34.90;36.50;;;;;;10474394;28;20289;-67
2022/08/30 09:54:51;;;;;;;4.90;2.90;;;36.50;34.40;;;;;;10469156;28;20639;-68
2022/08/30 10:00:07;;;;;;;11.27;3.30;;;36.50;34.00;;;;;;10467792;28;20216;-68
2022/08/30 10:05:41;;;;;;;8.30;3.17;;;36.60;33.60;;;;;;10471974;28;20221;-68
2022/08/30 10:11:00;;;;;;;5.03;2.77;;;37.40;32.60;;;;;;10470514;28;20224;-67
2022/08/30 10:16:15;;;;;;;7.37;2.80;;;37.40;31.50;;;;;;10464627;28;20226;-68
2022/08/30 10:21:24;;;;;;;14.73;3.30;;;38.50;29.80;;;;;;10473306;28;20222;-69
2022/08/30 10:26:33;;;;;;;7.13;2.90;;;38.10;30.10;;;;;;10471981;28;20224;-68
2022/08/30 10:31:43;;;;;;;7.83;2.93;;;38.00;30.00;;;;;;10473405;28;20754;-67
2022/08/30 10:36:51;;;;;;;8.97;3.00;;;36.40;31.70;;;;;;10469107;28;20259;-67
2022/08/30 10:42:00;;;;;;;5.20;2.50;;;36.70;31.40;;;;;;10461258;28;20667;-67
2022/08/30 10:47:21;;;;;;;4.53;2.53;;;37.70;30.00;;;;;;10474592;28;20234;-67
2022/08/30 10:52:40;;;;;;;5.90;3.00;;;39.40;29.10;;;;;;10476700;28;20223;-68
2022/08/30 10:57:41;;;;;;;7.00;2.90;;;39.70;28.40;;;;;;10475699;28;20287;-68
2022/08/30 11:03:07;;;;;;;4.50;2.57;;;39.70;28.50;;;;;;10468621;28;20346;-68
2022/08/30 11:08:38;;;;;;;5.40;3.03;;;38.80;28.80;;;;;;10477457;28;20236;-68
2022/08/30 11:13:40;;;;;;;4.80;3.00;;;36.00;31.40;;;;;;10477841;28;20221;-67
2022/08/30 11:18:51;;;;;;;5.90;3.00;;;32.80;35.70;;;;;;10482614;28;20717;-67
2022/08/30 11:24:10;;;;;;;4.80;2.60;;;31.40;37.90;;;;;;10468815;28;20269;-68
2022/08/30 11:29:28;;;;;;;4.57;2.80;;;30.90;39.00;;;;;;10480980;28;20226;-67
2022/08/30 11:34:47;;;;;;;6.90;2.80;;;30.30;39.60;;;;;;10476099;28;20559;-67
2022/08/30 11:39:52;;;;;;;3.13;2.83;;;30.00;39.60;;;;;;10483459;28;20227;-66
2022/08/30 11:45:22;;;;;;;3.07;2.63;;;29.70;40.50;;;;;;10467946;28;20240;-67
2022/08/30 11:50:32;;;;;;;4.63;2.43;;;29.30;40.70;;;;;;10478384;28;20269;-67
2022/08/30 11:56:13;;;;;;;4.10;2.43;;;29.30;40.80;;;;;;10480203;28;20586;-68
2022/08/30 12:01:26;;;;;;;5.00;2.60;;;29.20;41.00;;;;;;10457119;28;20712;-68
2022/08/30 12:06:59;;;;;;;2.60;2.40;;;29.10;40.90;;;;;;10478269;28;20223;-67
2022/08/30 12:12:05;;;;;;;5.43;2.80;;;29.20;40.80;;;;;;10468526;28;20770;-67
2022/08/30 12:22:42;;;;;;;3.03;2.70;;;29.10;41.20;;;;;;10478718;28;20223;-69
2022/08/30 12:27:42;;;;;;;4.43;2.63;;;29.20;41.40;;;;;;10474745;28;20223;-68
2022/08/30 12:32:46;;;;;;;3.63;2.50;;;29.10;41.50;;;;;;10476284;28;20743;-67
2022/08/30 12:38:00;;;;;;;2.93;2.63;;;29.10;41.40;;;;;;10473114;28;20219;-67
2022/08/30 12:43:04;;;;;;;2.70;2.40;;;29.00;41.20;;;;;;10468361;28;20594;-68
2022/08/30 12:48:06;;;;;;;3.93;2.53;;;29.10;40.80;;;;;;10478787;28;20701;-68
2022/08/30 12:53:12;;;;;;;3.97;2.80;;;29.00;41.20;;;;;;10472310;28;20219;-66
2022/08/30 12:58:13;;;;;;;3.60;2.60;;;29.20;40.90;;;;;;10480783;28;20878;-67
2022/08/30 13:03:34;;;;;;;5.10;3.03;;;29.30;41.10;;;;;;10475513;28;20215;-67
2022/08/30 13:08:44;;;;;;;3.93;2.60;;;29.40;41.20;;;;;;10472393;28;20225;-67
2022/08/30 13:13:51;;;;;;;4.93;2.57;;;29.20;41.30;;;;;;10474106;28;20685;-68
2022/08/30 13:19:15;;;;;;;4.37;2.87;;;29.30;41.30;;;;;;10463843;28;20231;-68
2022/08/30 13:24:16;;;;;;;4.00;2.47;;;29.40;40.30;;;;;;10476233;28;20234;-67
2022/08/30 13:29:19;;;;;;;4.30;2.63;;;29.30;40.40;;;;;;10474841;28;20223;-67
2022/08/30 13:34:23;;;;;;;6.80;2.97;;;29.50;40.20;;;;;;10474582;28;20230;-68
2022/08/30 13:39:24;;;;;;;4.00;2.63;;;29.70;40.30;;;;;;10475205;28;20314;-67
2022/08/30 13:44:25;;;;;;;6.97;2.90;;;29.90;40.00;;;;;;10470105;28;20345;-67
2022/08/30 13:49:34;;;;;;;4.23;2.50;;;30.10;39.40;;;;;;10469579;28;20748;-66
2022/08/30 13:54:35;;;;;;;5.20;2.80;;;29.90;40.10;;;;;;10471817;28;20230;-67
2022/08/30 13:59:36;;;;;;;4.63;2.50;;;29.80;38.80;;;;;;10471472;28;20232;-67
2022/08/30 14:04:36;;;;;;;3.00;2.63;;;29.80;38.90;;;;;;10469973;28;20306;-67
2022/08/30 14:09:37;;;;;;;3.40;2.57;;;29.90;39.30;;;;;;10469368;28;20220;-68
2022/08/30 14:14:38;;;;;;;3.80;2.80;;;30.10;39.20;;;;;;10475998;28;20243;-68
2022/08/30 14:19:38;;;;;;;3.27;2.70;;;30.30;38.90;;;;;;10471076;28;20238;-68
2022/08/30 14:24:39;;;;;;;3.37;2.60;;;29.90;39.00;;;;;;10468730;28;20669;-67
2022/08/30 14:29:47;;;;;;;5.40;2.83;;;29.80;39.50;;;;;;10474843;28;20266;-67
2022/08/30 14:34:47;;;;;;;4.23;2.70;;;29.50;39.70;;;;;;10466226;28;20715;-68
2022/08/30 14:39:48;;;;;;;4.60;2.70;;;29.30;40.20;;;;;;10476216;28;20221;-67
2022/08/30 14:44:48;;;;;;;3.97;2.83;;;29.40;40.30;;;;;;10476074;28;20642;-68
2022/08/30 14:49:49;;;;;;;7.17;3.00;;;29.20;40.80;;;;;;10468096;28;20315;-67
2022/08/30 14:54:49;;;;;;;3.70;2.80;;;29.20;41.20;;;;;;10460076;28;20219;-67
2022/08/30 14:59:50;;;;;;;4.23;2.67;;;29.20;40.80;;;;;;10476966;28;20302;-67
2022/08/30 15:04:51;;;;;;;4.90;2.87;;;29.10;41.20;;;;;;10467348;28;20224;-67
2022/08/30 15:09:51;;;;;;;3.33;2.77;;;28.90;41.20;;;;;;10469699;28;20239;-67
2022/08/30 15:14:52;;;;;;;4.90;2.80;;;28.70;41.60;;;;;;10476230;28;20655;-68
2022/08/30 15:19:53;;;;;;;4.80;2.83;;;28.70;41.60;;;;;;10468118;28;20224;-67
2022/08/30 15:24:54;;;;;;;4.77;2.70;;;28.80;41.60;;;;;;10474910;28;20215;-68
2022/08/30 15:29:55;;;;;;;6.80;2.80;;;28.80;41.40;;;;;;10468446;28;20223;-68
2022/08/30 15:34:55;;;;;;;3.40;2.50;;;28.90;41.20;;;;;;10474671;28;20246;-68
2022/08/30 15:39:56;;;;;;;3.83;3.00;;;28.90;40.90;;;;;;10468729;28;20770;-68
2022/08/30 15:44:57;;;;;;;3.93;2.77;;;28.90;41.10;;;;;;10473852;28;20211;-68
2022/08/30 15:50:01;;;;;;;4.20;2.90;;;28.80;41.10;;;;;;10463429;28;20781;-68
2022/08/30 15:55:05;;;;;;;2.77;2.57;;;28.70;41.30;;;;;;10474158;28;20226;-68
2022/08/30 16:00:08;;;;;;;5.70;2.80;;;28.60;41.80;;;;;;10479533;28;20360;-67
2022/08/30 16:05:09;;;;;;;3.93;2.67;;;28.50;42.10;;;;;;10475330;28;20169;-69
2022/08/30 16:10:10;;;;;;;3.93;2.90;;;28.50;42.30;;;;;;10479749;28;20191;-68
2022/08/30 16:15:11;;;;;;;7.40;4.60;;;28.50;41.80;;;;;;10477029;28;20239;-68
2022/08/30 16:20:11;;;;;;;6.13;2.97;;;28.40;42.00;;;;;;10476900;28;20208;-67
2022/08/30 16:25:12;;;;;;;4.53;3.27;;;28.40;42.10;;;;;;10475961;28;20624;-67
2022/08/30 16:30:14;;;;;;;4.97;2.90;;;28.30;42.40;;;;;;10470482;28;20708;-67
2022/08/30 16:35:15;;;;;;;5.83;2.97;;;28.20;42.70;;;;;;10472161;28;20232;-68
2022/08/30 16:40:19;;;;;;;8.63;3.13;;;27.90;42.70;;;;;;10469013;28;20353;-68
2022/08/30 16:45:19;;;;;;;4.50;2.80;;;27.80;43.30;;;;;;10473758;28;20183;-67
2022/08/30 16:50:22;;;;;;;3.80;2.83;;;27.60;43.50;;;;;;10474165;28;20199;-67
2022/08/30 16:55:22;;;;;;;5.73;3.33;;;27.60;44.30;;;;;;10474941;28;20183;-67
2022/08/30 17:00:23;;;;;;;4.93;2.83;;;27.50;43.70;;;;;;10474190;28;20939;-68
2022/08/30 17:05:25;;;;;;;4.80;2.90;;;27.40;43.80;;;;;;10476607;28;20224;-68
2022/08/30 17:10:25;;;;;;;4.73;2.77;;;27.40;43.80;;;;;;10470971;28;20215;-67
2022/08/30 17:15:26;;;;;;;4.80;2.77;;;27.30;44.00;;;;;;10473845;28;20233;-68
2022/08/30 17:20:29;;;;;;;5.17;3.53;;;27.30;44.10;;;;;;10473609;28;20221;-68
2022/08/30 17:25:30;;;;;;;6.27;3.20;;;27.20;44.40;;;;;;10476559;28;20220;-67
2022/08/30 17:30:31;;;;;;;7.13;3.10;;;27.00;44.90;;;;;;10473583;28;20305;-69
2022/08/30 17:35:32;;;;;;;6.83;3.00;;;26.90;45.10;;;;;;10476074;28;20222;-68
2022/08/30 17:40:32;;;;;;;5.60;2.87;;;26.80;45.40;;;;;;10472906;28;20655;-67
2022/08/30 17:45:33;;;;;;;6.73;2.60;;;26.70;45.80;;;;;;10469956;28;20653;-68
2022/08/30 17:50:34;;;;;;;4.07;2.83;;;26.50;46.20;;;;;;10475693;28;20766;-68
2022/08/30 17:55:34;;;;;;;5.03;2.90;;;26.40;46.90;;;;;;10472299;28;20219;-68
2022/08/30 18:00:35;;;;;;;5.63;3.30;;;26.20;47.30;;;;;;10469315;28;20235;-67
2022/08/30 18:05:36;;;;;;;3.37;2.67;;;26.10;47.70;;;;;;10469540;28;20315;-68
2022/08/30 18:10:36;;;;;;;5.37;2.87;;;25.90;48.00;;;;;;10474188;28;20211;-68
2022/08/30 18:15:37;;;;;;;6.50;3.13;;;25.80;48.40;;;;;;10468706;28;20226;-68
2022/08/30 18:20:38;;;;;;;5.47;3.30;;;25.60;48.70;;;;;;10469383;28;20317;-69
2022/08/30 18:25:39;;;;;;;7.73;3.67;;;25.50;49.10;;;;;;10468363;28;20698;-67
2022/08/30 18:30:39;;;;;;;3.50;3.10;;;25.40;49.50;;;;;;10469773;28;20257;-67
2022/08/30 18:35:42;;;;;;;9.70;3.23;;;25.20;49.90;;;;;;10469969;28;20226;-68
2022/08/30 18:40:43;;;;;;;5.67;3.50;;;25.10;50.30;;;;;;10476500;28;20796;-68
2022/08/30 18:45:47;;;;;;;7.13;3.10;;;25.10;50.50;;;;;;10469908;28;20313;-68
2022/08/30 18:50:48;;;;;;;6.93;3.63;;;25.00;50.60;;;;;;10468876;28;20274;-68
2022/08/30 18:55:49;;;;;;;12.17;2.90;;;24.90;51.00;;;;;;10468814;28;20294;-68
2022/08/30 19:00:49;;;;;;;7.37;3.20;;;24.90;51.20;;;;;;10469009;28;20227;-68
2022/08/30 19:05:50;;;;;;;7.33;3.17;;;24.80;51.40;;;;;;10460540;28;20223;-68
2022/08/30 19:10:51;;;;;;;4.67;2.93;;;24.70;51.80;;;;;;10476784;28;20222;-67
2022/08/30 19:15:52;;;;;;;3.63;2.57;;;24.60;52.20;;;;;;10468429;28;20691;-75
2022/08/30 19:20:52;;;;;;;8.67;3.30;;;24.50;52.50;;;;;;10469369;28;20643;-76
2022/08/30 19:25:56;;;;;;;6.13;2.80;;;24.50;52.80;;;;;;10469496;28;20302;-75
2022/08/30 19:30:57;;;;;;;11.03;3.57;;;24.40;52.90;;;;;;10476750;28;20384;-75
2022/08/30 19:35:57;;;;;;;7.57;2.87;;;24.30;53.10;;;;;;10485099;28;20219;-73
2022/08/30 19:40:59;;;;;;;5.67;3.00;;;24.30;53.30;;;;;;10483788;28;20235;-74
2022/08/30 19:46:00;;;;;;;6.30;2.87;;;24.20;53.70;;;;;;10477771;28;20604;-75
2022/08/30 19:51:08;;;;;;;6.47;3.17;;;24.20;53.90;;;;;;10475340;28;20223;-75
2022/08/30 19:56:09;;;;;;;6.53;2.90;;;24.10;54.10;;;;;;10478278;28;20879;-77
2022/08/30 20:01:09;;;;;;;6.93;3.13;;;24.00;54.40;;;;;;10480031;28;20218;-75
2022/08/30 20:06:10;;;;;;;6.77;3.10;;;23.90;54.60;;;;;;10471019;28;20235;-74
2022/08/30 20:11:16;;;;;;;5.53;3.00;;;23.80;54.90;;;;;;10478655;28;20796;-75
2022/08/30 20:16:17;;;;;;;4.73;3.00;;;23.70;55.20;;;;;;10479688;28;20327;-75
2022/08/30 20:21:18;;;;;;;5.10;3.03;;;23.60;55.40;;;;;;10474217;28;20228;-73
2022/08/30 20:26:19;;;;;;;7.83;2.93;;;23.50;55.70;;;;;;10478266;28;20219;-75
2022/08/30 20:31:20;;;;;;;12.37;3.37;;;23.40;56.00;;;;;;10477532;28;20243;-75
2022/08/30 20:36:23;;;;;;;9.73;3.20;;;23.40;56.30;;;;;;10475394;28;20312;-74
2022/08/30 20:41:27;;;;;;;5.80;4.00;;;23.30;56.40;;;;;;10476719;28;20244;-75
2022/08/30 20:46:28;;;;;;;6.73;3.70;;;23.20;56.60;;;;;;10479296;28;20716;-75
2022/08/30 20:51:29;;;;;;;6.63;3.70;;;23.20;56.70;;;;;;10467934;28;20226;-75
2022/08/30 20:56:30;;;;;;;5.80;3.40;;;23.20;56.90;;;;;;10479550;28;20219;-75
2022/08/30 21:01:32;;;;;;;8.50;3.87;;;23.10;56.90;;;;;;10474835;28;20221;-75
2022/08/30 21:06:36;;;;;;;9.37;4.00;;;23.10;57.10;;;;;;10473016;28;20220;-75
2022/08/30 21:11:37;;;;;;;11.13;4.00;;;23.10;57.30;;;;;;10479843;28;20230;-75
2022/08/30 21:16:38;;;;;;;5.43;3.33;;;23.00;57.40;;;;;;10474622;28;20222;-68
2022/08/30 21:21:42;;;;;;;4.57;3.23;;;22.90;57.60;;;;;;10471875;28;20220;-67
2022/08/30 21:26:43;;;;;;;7.90;2.83;;;22.90;57.90;;;;;;10476046;28;20597;-68
2022/08/30 21:31:44;;;;;;;5.60;3.10;;;22.80;58.10;;;;;;10469754;28;20224;-68
2022/08/30 21:36:45;;;;;;;8.17;4.27;;;22.80;58.20;;;;;;10477312;28;20234;-68
2022/08/30 21:41:46;;;;;;;5.17;3.10;;;22.70;58.50;;;;;;10471806;28;20302;-67
2022/08/30 21:46:50;;;;;;;8.67;3.10;;;22.70;58.60;;;;;;10478261;28;20292;-72
2022/08/30 21:51:55;;;;;;;6.90;3.17;;;22.70;58.60;;;;;;10453592;28;20216;-69
2022/08/30 21:57:03;;;;;;;6.13;3.23;;;22.70;58.80;;;;;;10469638;28;20220;-70
2022/08/30 22:02:04;;;;;;;6.37;3.33;;;22.70;58.90;;;;;;10459956;28;20208;-72
2022/08/30 22:07:07;;;;;;;4.63;2.60;;;22.60;59.10;;;;;;10474825;28;20220;-70
2022/08/30 22:12:07;;;;;;;8.37;3.30;;;22.60;59.40;;;;;;10471070;28;20224;-70
2022/08/30 22:17:08;;;;;;;8.10;3.20;;;22.50;59.70;;;;;;10475684;28;20219;-70
2022/08/30 22:22:12;;;;;;;7.17;2.90;;;22.40;59.90;;;;;;10471884;28;20326;-69
2022/08/30 22:27:13;;;;;;;4.43;2.97;;;22.30;60.30;;;;;;10473221;28;20681;-70
2022/08/30 22:32:14;;;;;;;8.53;3.40;;;22.30;60.60;;;;;;10468677;28;20220;-70
2022/08/30 22:37:15;;;;;;;5.20;3.23;;;22.20;60.90;;;;;;10470441;28;20220;-69
2022/08/30 22:42:15;;;;;;;7.03;3.17;;;22.20;61.10;;;;;;10469626;28;20685;-70
2022/08/30 22:47:16;;;;;;;6.67;3.10;;;22.20;61.40;;;;;;10473649;28;20227;-69
2022/08/30 22:52:16;;;;;;;4.30;2.93;;;22.10;61.40;;;;;;10471992;28;20245;-70
2022/08/30 22:57:18;;;;;;;6.97;3.30;;;22.10;61.80;;;;;;10473236;28;20641;-70
2022/08/30 23:02:19;;;;;;;5.97;3.00;;;22.00;61.90;;;;;;10470636;28;20215;-71
2022/08/30 23:07:19;;;;;;;4.07;3.00;;;22.00;62.20;;;;;;10472816;28;20575;-70
2022/08/30 23:12:20;;;;;;;5.43;2.90;;;22.00;62.40;;;;;;10472338;28;20310;-69
2022/08/30 23:17:21;;;;;;;6.00;3.17;;;22.00;62.50;;;;;;10475910;28;20235;-70
2022/08/30 23:22:21;;;;;;;5.27;3.07;;;22.00;62.70;;;;;;10471932;28;20307;-70
